Time;durP1;ratioP1;P1;durP2;ratioP2;P2;SDS_P1;SDS_P2;PMS_P1;PMS_P2;Temp;Humidity;BMP_temperature;BMP_pressure;BME280_temperature;BME280_humidity;BME280_pressure;Samples;Min_cycle;Max_cycle;Signal;HPM_P1;HPM_P2
2023/06/02 00:00:07;;;;;;;6.90;4.90;;;;;14.80;96636.00;;;;4927716;29;20596;-72
2023/06/02 00:02:57;;;;;;;4.93;4.40;;;;;14.80;96637.00;;;;4932643;29;20219;-71
2023/06/02 00:05:49;;;;;;;4.53;4.13;;;;;14.30;96627.00;;;;4931467;29;20284;-72
2023/06/02 00:08:40;;;;;;;5.20;4.47;;;;;14.20;96625.00;;;;4927673;29;20201;-72
2023/06/02 00:11:34;;;;;;;4.80;4.40;;;;;13.90;96626.00;;;;4928985;29;20205;-72
2023/06/02 00:14:23;;;;;;;5.57;4.93;;;;;14.00;96619.00;;;;4931394;29;20583;-72
2023/06/02 00:17:14;;;;;;;6.27;4.90;;;;;13.70;96628.00;;;;4924299;29;20201;-73
2023/06/02 00:20:05;;;;;;;5.60;5.03;;;;;14.00;96618.00;;;;4928742;29;20228;-72
2023/06/02 00:22:54;;;;;;;4.93;4.43;;;;;14.20;96621.00;;;;4933774;29;20209;-72
2023/06/02 00:25:43;;;;;;;6.47;5.47;;;;;14.50;96626.00;;;;4947954;29;20235;-72
2023/06/02 00:28:32;;;;;;;5.37;4.87;;;;;14.60;96622.00;;;;4953267;29;20211;-71
2023/06/02 00:31:21;;;;;;;5.20;4.17;;;;;14.80;96626.00;;;;4953110;29;20214;-72
2023/06/02 00:34:12;;;;;;;7.77;5.03;;;;;14.40;96614.00;;;;4947960;28;20709;-70
2023/06/02 00:37:01;;;;;;;7.13;5.20;;;;;14.60;96625.00;;;;4948617;29;20282;-73
2023/06/02 00:39:50;;;;;;;4.30;3.90;;;;;14.20;96622.00;;;;4952031;28;20230;-72
2023/06/02 00:42:40;;;;;;;6.67;4.43;;;;;14.30;96621.00;;;;4951122;29;20394;-73
2023/06/02 00:45:29;;;;;;;6.67;4.50;;;;;14.50;96618.00;;;;4951833;28;20231;-73
2023/06/02 00:48:18;;;;;;;5.50;3.93;;;;;14.40;96614.00;;;;4947463;29;20583;-73
2023/06/02 00:51:09;;;;;;;5.50;4.83;;;;;14.40;96615.00;;;;4946988;29;20207;-73
2023/06/02 00:53:58;;;;;;;7.30;5.07;;;;;13.80;96603.00;;;;4950804;28;20708;-70
2023/06/02 00:56:47;;;;;;;4.20;3.60;;;;;14.00;96605.00;;;;4951850;29;20200;-72
2023/06/02 00:59:37;;;;;;;6.20;5.03;;;;;13.90;96604.00;;;;4951692;29;20219;-73
2023/06/02 01:02:26;;;;;;;7.50;4.73;;;;;14.00;96604.00;;;;4950026;29;20208;-72
2023/06/02 01:05:16;;;;;;;7.83;5.27;;;;;14.00;96604.00;;;;4947897;28;20355;-72
2023/06/02 01:08:07;;;;;;;6.33;4.77;;;;;14.20;96610.00;;;;4952798;29;20211;-71
2023/06/02 01:10:56;;;;;;;5.57;4.97;;;;;14.20;96598.00;;;;4952635;28;20303;-72
2023/06/02 01:13:46;;;;;;;6.67;5.27;;;;;14.00;96602.00;;;;4950975;29;20199;-73
2023/06/02 01:16:35;;;;;;;6.63;4.93;;;;;13.90;96596.00;;;;4951476;29;20241;-73
2023/06/02 01:19:26;;;;;;;8.07;5.77;;;;;13.80;96593.00;;;;4952172;29;20208;-72
2023/06/02 01:34:37;;;;;;;6.47;4.83;;;;;13.90;96600.00;;;;4995460;28;20202;-73
2023/06/02 01:37:27;;;;;;;5.80;4.50;;;;;13.90;96593.00;;;;4991305;28;20833;-73
2023/06/02 01:40:17;;;;;;;5.33;4.83;;;;;13.80;96590.00;;;;4996986;28;20259;-73
2023/06/02 01:43:07;;;;;;;6.57;4.80;;;;;13.90;96587.00;;;;4995507;28;20213;-72
2023/06/02 01:45:57;;;;;;;4.73;3.87;;;;;13.80;96580.00;;;;4993502;28;20897;-73
2023/06/02 01:48:46;;;;;;;7.00;5.50;;;;;13.80;96577.00;;;;4993656;28;20232;-72
2023/06/02 01:51:36;;;;;;;5.60;5.10;;;;;13.90;96580.00;;;;4995939;28;20205;-73
2023/06/02 01:54:25;;;;;;;5.17;4.67;;;;;14.00;96586.00;;;;4999182;28;20270;-73
2023/06/02 01:57:15;;;;;;;5.80;5.30;;;;;13.80;96576.00;;;;4995719;28;20194;-72
2023/06/02 02:00:05;;;;;;;7.60;4.87;;;;;14.00;96582.00;;;;4995246;28;20226;-71
2023/06/02 02:02:54;;;;;;;5.93;5.43;;;;;14.20;96585.00;;;;4998497;28;20233;-71
2023/06/02 02:05:44;;;;;;;5.17;4.43;;;;;13.80;96581.00;;;;5001989;28;20222;-74
2023/06/02 02:08:34;;;;;;;9.20;5.00;;;;;13.90;96578.00;;;;4999892;28;20213;-74
2023/06/02 02:11:23;;;;;;;5.27;4.77;;;;;13.90;96575.00;;;;5001208;28;20694;-73
2023/06/02 02:14:13;;;;;;;6.17;4.60;;;;;13.60;96570.00;;;;4999274;28;20203;-71
2023/06/02 02:17:02;;;;;;;10.13;5.50;;;;;13.20;96572.00;;;;5002551;28;20221;-74
2023/06/02 02:19:51;;;;;;;6.53;4.37;;;;;13.20;96575.00;;;;5003360;28;20202;-73
2023/06/02 02:22:40;;;;;;;4.83;4.43;;;;;13.30;96576.00;;;;5000831;28;20233;-72
2023/06/02 02:25:30;;;;;;;4.60;4.20;;;;;12.90;96565.00;;;;5000045;28;20229;-72
2023/06/02 02:28:20;;;;;;;6.87;4.67;;;;;13.00;96574.00;;;;5003514;28;20556;-71
2023/06/02 02:31:09;;;;;;;5.30;4.53;;;;;13.30;96569.00;;;;5002832;28;20213;-72
2023/06/02 02:33:58;;;;;;;5.23;4.73;;;;;13.50;96564.00;;;;5000258;28;20250;-72
2023/06/02 02:36:48;;;;;;;6.30;5.43;;;;;13.60;96560.00;;;;5000823;28;20216;-72
2023/06/02 02:39:37;;;;;;;6.53;5.63;;;;;13.60;96565.00;;;;5007027;28;20217;-72
2023/06/02 02:42:28;;;;;;;5.87;5.27;;;;;13.60;96566.00;;;;4999330;28;20222;-72
2023/06/02 02:45:17;;;;;;;5.83;5.03;;;;;13.70;96567.00;;;;4995466;28;20234;-72
2023/06/02 02:48:07;;;;;;;5.43;4.93;;;;;13.80;96566.00;;;;4999041;28;20213;-73
2023/06/02 02:50:56;;;;;;;6.80;5.20;;;;;13.80;96567.00;;;;4996654;28;20202;-72
2023/06/02 02:53:45;;;;;;;6.33;5.03;;;;;14.20;96571.00;;;;4994226;28;20198;-72
2023/06/02 02:56:36;;;;;;;6.23;5.00;;;;;14.10;96570.00;;;;4997380;28;20229;-72
2023/06/02 02:59:27;;;;;;;5.73;5.23;;;;;13.80;96575.00;;;;5004287;28;20205;-72
2023/06/02 03:02:16;;;;;;;6.67;4.77;;;;;13.60;96561.00;;;;5006364;28;20242;-72
2023/06/02 03:05:06;;;;;;;8.83;5.07;;;;;13.20;96560.00;;;;4999729;28;20230;-72
2023/06/02 03:07:56;;;;;;;6.43;5.80;;;;;13.40;96571.00;;;;4999685;28;20211;-72
2023/06/02 03:10:45;;;;;;;7.17;5.57;;;;;13.30;96570.00;;;;4999203;28;20664;-73
2023/06/02 03:13:34;;;;;;;4.20;3.83;;;;;13.30;96568.00;;;;5000263;28;20572;-73
2023/06/02 03:16:28;;;;;;;7.33;5.10;;;;;13.40;96565.00;;;;5000999;28;20222;-73
2023/06/02 03:19:17;;;;;;;7.77;4.97;;;;;13.40;96554.00;;;;5002950;28;20210;-72
2023/06/02 03:22:06;;;;;;;5.10;4.60;;;;;13.30;96560.00;;;;4996854;28;20283;-72
2023/06/02 03:24:55;;;;;;;6.40;4.63;;;;;13.40;96556.00;;;;4996954;28;20237;-72
2023/06/02 03:27:44;;;;;;;6.47;5.60;;;;;13.50;96558.00;;;;4999112;28;20198;-73
2023/06/02 03:30:34;;;;;;;6.87;4.47;;;;;13.40;96558.00;;;;4993623;28;20206;-71
2023/06/02 03:33:24;;;;;;;10.20;6.17;;;;;13.40;96562.00;;;;5002853;28;20206;-72
2023/06/02 03:36:17;;;;;;;6.67;5.50;;;;;13.30;96563.00;;;;4996776;28;20586;-72
2023/06/02 03:39:07;;;;;;;8.13;6.43;;;;;13.60;96564.00;;;;4997954;28;20209;-72
2023/06/02 03:41:56;;;;;;;9.00;5.20;;;;;13.70;96563.00;;;;4997178;28;20225;-72
2023/06/02 03:44:45;;;;;;;6.40;5.87;;;;;13.50;96565.00;;;;4998297;28;20589;-72
2023/06/02 03:47:34;;;;;;;6.30;5.50;;;;;13.10;96565.00;;;;5000878;28;20227;-72
2023/06/02 03:50:25;;;;;;;10.40;5.50;;;;;13.10;96574.00;;;;5000421;28;20210;-72
2023/06/02 03:53:14;;;;;;;5.87;5.27;;;;;13.00;96566.00;;;;4994306;28;20199;-72
2023/06/02 03:56:03;;;;;;;8.53;5.40;;;;;12.80;96573.00;;;;4999045;28;20245;-72
2023/06/02 03:58:52;;;;;;;5.83;4.63;;;;;12.70;96570.00;;;;4997053;28;20207;-73
2023/06/02 04:01:42;;;;;;;6.63;5.50;;;;;13.20;96568.00;;;;5003441;28;20232;-69
2023/06/02 04:04:31;;;;;;;7.17;6.07;;;;;13.20;96576.00;;;;4999477;28;20213;-70
2023/06/02 04:07:22;;;;;;;10.27;5.37;;;;;13.20;96577.00;;;;5002248;28;20221;-66
2023/06/02 04:10:11;;;;;;;7.80;6.20;;;;;13.50;96576.00;;;;5002592;28;20210;-71
2023/06/02 04:13:00;;;;;;;7.77;6.33;;;;;13.80;96572.00;;;;4997967;28;20195;-72
2023/06/02 04:15:49;;;;;;;7.07;6.17;;;;;13.60;96565.00;;;;5000871;28;20738;-71
2023/06/02 04:18:39;;;;;;;20.80;7.23;;;;;13.90;96577.00;;;;5005404;28;20229;-71
2023/06/02 04:25:31;;;;;;;7.30;5.93;;;;;14.40;96571.00;;;;4994270;28;20226;-70
2023/06/02 04:28:21;;;;;;;8.27;6.13;;;;;14.00;96567.00;;;;5003304;28;20681;-73
2023/06/02 04:31:11;;;;;;;7.47;5.60;;;;;14.10;96576.00;;;;5000813;28;20580;-74
2023/06/02 04:34:00;;;;;;;6.87;5.33;;;;;14.30;96564.00;;;;4998574;28;20206;-73
2023/06/02 04:36:50;;;;;;;10.60;7.57;;;;;14.40;96569.00;;;;4999862;28;20202;-73
2023/06/02 04:39:39;;;;;;;15.23;8.77;;;;;14.40;96568.00;;;;4999835;28;20214;-72
2023/06/02 04:42:30;;;;;;;14.67;9.33;;;;;14.70;96572.00;;;;5000152;28;20305;-71
2023/06/02 04:45:20;;;;;;;9.40;7.67;;;;;14.60;96575.00;;;;5003539;28;20233;-72
2023/06/02 04:48:09;;;;;;;10.07;5.53;;;;;14.50;96582.00;;;;4997762;28;20241;-72
2023/06/02 04:50:58;;;;;;;9.87;5.47;;;;;14.70;96575.00;;;;4993862;28;20273;-71
2023/06/02 04:53:47;;;;;;;6.93;6.27;;;;;14.90;96581.00;;;;4991164;28;20198;-71
2023/06/02 04:56:36;;;;;;;8.10;5.57;;;;;15.00;96572.00;;;;4996087;28;20219;-71
2023/06/02 04:59:28;;;;;;;6.77;5.47;;;;;14.60;96581.00;;;;4998274;28;20198;-70
2023/06/02 05:02:17;;;;;;;8.57;6.17;;;;;14.70;96578.00;;;;5001430;28;20217;-72
2023/06/02 05:05:07;;;;;;;8.03;6.20;;;;;15.40;96575.00;;;;5001000;28;20226;-71
2023/06/02 05:07:56;;;;;;;6.33;5.07;;;;;14.90;96573.00;;;;4999582;28;20806;-70
2023/06/02 05:10:45;;;;;;;9.70;6.17;;;;;15.40;96586.00;;;;4997927;28;20205;-71
2023/06/02 05:13:35;;;;;;;9.67;6.67;;;;;15.50;96582.00;;;;4997006;28;20205;-74
2023/06/02 05:16:28;;;;;;;9.10;6.63;;;;;15.20;96577.00;;;;4997111;28;20215;-71
2023/06/02 05:19:17;;;;;;;7.27;6.10;;;;;15.50;96580.00;;;;5001128;28;20618;-71
2023/06/02 05:22:06;;;;;;;8.20;6.03;;;;;15.70;96581.00;;;;4995376;28;20252;-71
2023/06/02 05:24:55;;;;;;;8.10;6.27;;;;;15.60;96577.00;;;;5000071;28;20329;-70
2023/06/02 05:27:44;;;;;;;8.80;5.97;;;;;15.70;96574.00;;;;5000487;28;20210;-71
2023/06/02 05:30:33;;;;;;;7.27;6.37;;;;;15.70;96572.00;;;;4994463;28;20209;-71
2023/06/02 05:33:24;;;;;;;8.67;7.10;;;;;15.90;96573.00;;;;4998218;28;20194;-71
2023/06/02 05:36:13;;;;;;;7.13;6.40;;;;;15.90;96569.00;;;;4998056;28;20333;-69
2023/06/02 05:39:02;;;;;;;9.23;6.83;;;;;15.80;96562.00;;;;5000802;28;20218;-71
2023/06/02 05:41:51;;;;;;;19.40;7.03;;;;;16.30;96562.00;;;;5000279;28;20794;-71
2023/06/02 05:44:41;;;;;;;11.97;8.13;;;;;16.70;96569.00;;;;4998966;28;20232;-71
2023/06/02 05:47:30;;;;;;;9.03;7.90;;;;;17.10;96562.00;;;;5005516;28;20210;-72
2023/06/02 05:50:24;;;;;;;9.70;7.33;;;;;17.30;96566.00;;;;5000399;28;20676;-72
2023/06/02 05:53:15;;;;;;;12.37;7.43;;;;;17.50;96570.00;;;;4999274;28;20198;-74
2023/06/02 05:56:04;;;;;;;12.57;7.57;;;;;18.20;96576.00;;;;4998708;28;20699;-73
2023/06/02 05:58:53;;;;;;;11.53;7.77;;;;;17.60;96579.00;;;;4997775;28;20232;-73
2023/06/02 06:01:42;;;;;;;9.97;6.83;;;;;18.00;96572.00;;;;4995796;28;20229;-73
2023/06/02 06:04:31;;;;;;;10.37;8.03;;;;;17.70;96575.00;;;;5001056;28;20228;-73
2023/06/02 06:07:22;;;;;;;9.13;7.40;;;;;18.10;96580.00;;;;4999387;28;20202;-73
2023/06/02 06:10:11;;;;;;;13.33;7.83;;;;;18.40;96574.00;;;;5008230;28;20572;-73
2023/06/02 06:13:00;;;;;;;9.23;7.93;;;;;18.40;96585.00;;;;4999948;28;20201;-74
2023/06/02 06:15:49;;;;;;;11.53;8.40;;;;;18.90;96574.00;;;;5001825;28;20694;-73
2023/06/02 06:18:38;;;;;;;11.53;7.83;;;;;18.90;96579.00;;;;5000695;28;20217;-74
2023/06/02 06:21:27;;;;;;;12.10;7.93;;;;;19.10;96571.00;;;;4998484;28;20226;-74
2023/06/02 06:24:18;;;;;;;10.33;7.40;;;;;19.50;96568.00;;;;5001317;28;20222;-74
2023/06/02 06:27:07;;;;;;;12.53;7.80;;;;;19.90;96570.00;;;;4998513;28;20209;-74
2023/06/02 06:29:57;;;;;;;9.97;8.73;;;;;20.10;96575.00;;;;5001634;28;20207;-74
2023/06/02 06:32:46;;;;;;;9.73;7.43;;;;;19.90;96581.00;;;;4999004;28;20202;-74
2023/06/02 06:35:35;;;;;;;11.73;9.00;;;;;20.60;96568.00;;;;5001198;28;20276;-73
2023/06/02 06:38:24;;;;;;;9.47;8.00;;;;;21.10;96565.00;;;;5006248;28;20210;-73
2023/06/02 06:41:15;;;;;;;9.30;7.20;;;;;21.40;96571.00;;;;5003761;28;20766;-74
2023/06/02 06:44:04;;;;;;;12.77;7.93;;;;;21.60;96578.00;;;;5005439;28;20230;-74
2023/06/02 06:46:53;;;;;;;10.43;8.17;;;;;21.80;96575.00;;;;4996784;28;20221;-73
2023/06/02 06:49:42;;;;;;;13.65;7.95;;;;;22.00;96572.00;;;;5001657;28;20206;-73
2023/06/02 06:52:31;;;;;;;7.90;7.10;;;;;22.20;96577.00;;;;5001453;28;20205;-73
2023/06/02 06:55:20;;;;;;;10.80;7.80;;;;;22.30;96575.00;;;;4993499;28;20225;-73
2023/06/02 06:58:11;;;;;;;11.00;8.30;;;;;22.70;96580.00;;;;5002235;28;20233;-73
2023/06/02 07:01:00;;;;;;;8.63;7.70;;;;;22.60;96580.00;;;;4998877;28;20209;-72
2023/06/02 07:03:49;;;;;;;10.63;7.60;;;;;22.20;96579.00;;;;5005446;28;20230;-73
2023/06/02 07:06:38;;;;;;;7.70;6.90;;;;;22.30;96585.00;;;;5004340;28;20245;-73
2023/06/02 07:09:27;;;;;;;8.60;6.70;;;;;22.40;96574.00;;;;4995156;28;20195;-73
2023/06/02 07:12:16;;;;;;;10.67;7.40;;;;;22.80;96567.00;;;;5000807;28;20213;-72
2023/06/02 07:15:08;;;;;;;9.50;6.83;;;;;23.10;96573.00;;;;4997172;28;20599;-72
2023/06/02 07:17:57;;;;;;;9.07;7.50;;;;;23.40;96579.00;;;;4995617;28;20590;-72
2023/06/02 07:20:46;;;;;;;8.50;7.60;;;;;23.50;96577.00;;;;4997138;28;20267;-73
2023/06/02 07:23:35;;;;;;;7.90;6.20;;;;;23.90;96576.00;;;;5001321;28;20180;-72
2023/06/02 07:26:25;;;;;;;7.53;6.60;;;;;24.00;96574.00;;;;4999655;23;20227;-83
2023/06/02 07:29:14;;;;;;;9.90;7.07;;;;;24.20;96564.00;;;;4967855;28;20223;-84
2023/06/02 07:32:05;;;;;;;9.70;7.17;;;;;24.20;96569.00;;;;4974125;28;20723;-85
2023/06/02 07:34:54;;;;;;;7.80;6.20;;;;;24.60;96576.00;;;;4974943;28;20207;-85
2023/06/02 07:37:43;;;;;;;8.40;6.80;;;;;24.70;96567.00;;;;4976045;28;20207;-85
2023/06/02 07:40:32;;;;;;;7.67;6.87;;;;;24.80;96578.00;;;;5023214;23;20246;-72
2023/06/02 07:43:21;;;;;;;7.37;6.67;;;;;25.00;96571.00;;;;4986578;28;20202;-74
2023/06/02 07:46:10;;;;;;;8.47;6.03;;;;;25.00;96574.00;;;;4988445;28;20243;-74
2023/06/02 07:49:01;;;;;;;9.97;6.70;;;;;25.20;96576.00;;;;4981568;28;20215;-73
2023/06/02 07:51:50;;;;;;;10.87;7.40;;;;;25.30;96559.00;;;;4981215;28;20206;-73
2023/06/02 07:54:39;;;;;;;8.30;7.50;;;;;25.40;96554.00;;;;4985635;28;20206;-72
2023/06/02 07:57:29;;;;;;;7.43;6.63;;;;;25.40;96564.00;;;;4980183;28;20231;-73
2023/06/02 08:00:21;;;;;;;8.97;6.47;;;;;25.70;96564.00;;;;4983415;28;20288;-73
2023/06/02 08:03:10;;;;;;;9.17;6.17;;;;;25.60;96558.00;;;;4985698;28;20209;-73
2023/06/02 08:06:00;;;;;;;6.07;5.47;;;;;25.60;96548.00;;;;4984523;28;20230;-72
2023/06/02 08:08:50;;;;;;;8.10;6.97;;;;;25.90;96553.00;;;;4987527;28;20209;-73
2023/06/02 08:11:39;;;;;;;7.77;6.63;;;;;26.30;96554.00;;;;4982811;28;20215;-74
2023/06/02 08:14:28;;;;;;;9.23;6.43;;;;;26.20;96550.00;;;;4984313;28;20581;-74
2023/06/02 08:17:17;;;;;;;6.70;6.00;;;;;26.70;96547.00;;;;4983374;28;20222;-74
2023/06/02 08:20:08;;;;;;;9.57;6.10;;;;;26.90;96550.00;;;;4984008;28;20218;-74
2023/06/02 08:22:58;;;;;;;7.73;6.33;;;;;27.00;96555.00;;;;4986548;28;20203;-74
2023/06/02 08:25:47;;;;;;;7.63;6.30;;;;;27.30;96552.00;;;;4982687;28;20704;-74
2023/06/02 08:28:37;;;;;;;6.87;5.87;;;;;27.50;96559.00;;;;4981351;28;20209;-74
2023/06/02 08:31:26;;;;;;;7.30;5.77;;;;;27.40;96557.00;;;;4982600;28;20211;-74
2023/06/02 08:34:20;;;;;;;8.37;6.20;;;;;27.50;96553.00;;;;4983844;28;20193;-72
2023/06/02 08:37:15;;;;;;;10.57;6.83;;;;;27.70;96559.00;;;;4975965;28;20609;-73
2023/06/02 08:40:07;;;;;;;8.93;6.33;;;;;27.80;96553.00;;;;4981795;28;20208;-72
2023/06/02 08:42:59;;;;;;;8.07;6.17;;;;;28.10;96555.00;;;;4988261;28;20275;-73
2023/06/02 08:45:49;;;;;;;5.67;5.13;;;;;28.10;96549.00;;;;4979081;28;20230;-74
2023/06/02 08:48:38;;;;;;;6.90;6.20;;;;;28.50;96554.00;;;;4985776;28;20217;-73
2023/06/02 08:51:27;;;;;;;8.07;6.27;;;;;28.40;96547.00;;;;4981617;28;20206;-73
2023/06/02 08:54:16;;;;;;;8.13;5.97;;;;;26.90;96538.00;;;;4991724;28;20209;-71
2023/06/02 08:57:12;;;;;;;7.80;5.60;;;;;28.30;96536.00;;;;4987551;28;20230;-73
2023/06/02 09:00:03;;;;;;;10.77;5.93;;;;;28.90;96533.00;;;;4988452;28;20200;-74
2023/06/02 09:02:53;;;;;;;8.80;6.05;;;;;28.80;96527.00;;;;4982036;28;20201;-74
2023/06/02 09:05:43;;;;;;;8.70;5.90;;;;;29.40;96531.00;;;;4977927;28;20232;-74
2023/06/02 09:08:32;;;;;;;7.03;5.20;;;;;29.70;96517.00;;;;4987863;28;20208;-73
2023/06/02 09:11:22;;;;;;;6.80;5.17;;;;;29.70;96519.00;;;;4989709;28;20656;-73
2023/06/02 09:14:20;;;;;;;8.97;6.13;;;;;29.90;96519.00;;;;4985586;28;20756;-74
2023/06/02 09:17:25;;;;;;;7.50;5.27;;;;;29.80;96513.00;;;;4994006;28;20236;-74
2023/06/02 09:20:14;;;;;;;6.37;4.57;;;;;30.30;96516.00;;;;4985426;28;20208;-74
2023/06/02 09:23:03;;;;;;;6.03;4.63;;;;;30.30;96516.00;;;;4992067;28;20215;-73
2023/06/02 09:25:52;;;;;;;5.30;4.03;;;;;29.70;96501.00;;;;4990739;28;20228;-73
2023/06/02 09:28:41;;;;;;;5.40;4.60;;;;;29.80;96505.00;;;;4993704;28;20221;-70
2023/06/02 09:31:44;;;;;;;5.47;4.80;;;;;29.80;96494.00;;;;4993553;28;20209;-69
2023/06/02 09:34:38;;;;;;;5.17;4.67;;;;;30.80;96502.00;;;;4985622;28;20216;-72
2023/06/02 09:37:27;;;;;;;5.70;4.30;;;;;31.10;96500.00;;;;4987710;28;20226;-73
2023/06/02 09:40:28;;;;;;;4.50;3.90;;;;;31.10;96499.00;;;;4982676;28;20199;-73
2023/06/02 09:43:19;;;;;;;5.93;4.43;;;;;30.30;96493.00;;;;4996025;28;20220;-73
2023/06/02 09:46:08;;;;;;;4.33;3.93;;;;;31.20;96488.00;;;;4988047;28;20243;-73
2023/06/02 09:49:01;;;;;;;3.70;3.30;;;;;30.10;96485.00;;;;4995367;28;20204;-74
2023/06/02 09:51:50;;;;;;;4.63;3.63;;;;;29.90;96475.00;;;;4980409;28;20588;-71
2023/06/02 09:54:39;;;;;;;4.67;3.40;;;;;29.80;96484.00;;;;4989421;28;20210;-73
2023/06/02 09:57:28;;;;;;;5.07;3.80;;;;;29.80;96486.00;;;;4984609;28;20228;-73
2023/06/02 10:00:18;;;;;;;5.57;4.33;;;;;29.70;96479.00;;;;4978247;28;20697;-72
2023/06/02 10:03:07;;;;;;;3.97;3.53;;;;;31.20;96478.00;;;;4988702;28;20215;-72
2023/06/02 10:06:11;;;;;;;4.70;3.40;;;;;31.60;96475.00;;;;4991640;28;20232;-74
2023/06/02 10:09:07;;;;;;;5.07;3.87;;;;;31.90;96476.00;;;;4991863;28;20219;-74
2023/06/02 10:12:08;;;;;;;5.23;3.30;;;;;32.80;96474.00;;;;4983246;28;20206;-73
2023/06/02 10:15:12;;;;;;;6.97;3.87;;;;;33.00;96465.00;;;;4995543;28;20666;-74
2023/06/02 10:18:22;;;;;;;4.07;3.67;;;;;32.80;96464.00;;;;4992321;28;20227;-74
2023/06/02 10:21:17;;;;;;;4.20;3.80;;;;;32.30;96457.00;;;;4983671;28;20212;-72
2023/06/02 10:24:11;;;;;;;5.13;3.53;;;;;33.50;96451.00;;;;4990713;28;20230;-73
2023/06/02 10:27:17;;;;;;;3.78;3.47;;;;;33.80;96443.00;;;;4987034;28;20238;-72
2023/06/02 10:30:07;;;;;;;3.92;3.30;;;;;33.90;96436.00;;;;4988147;28;20205;-74
2023/06/02 10:32:57;;;;;;;3.95;3.60;;;;;33.70;96429.00;;;;4985816;28;20270;-74
2023/06/02 10:36:01;;;;;;;5.13;3.78;;;;;33.60;96444.00;;;;4980156;28;20246;-73
2023/06/02 10:38:51;;;;;;;5.32;3.75;;;;;32.00;96431.00;;;;4991968;28;20216;-72
2023/06/02 10:42:08;;;;;;;4.93;2.97;;;;;32.20;96428.00;;;;4978592;28;20211;-71
2023/06/02 10:45:30;;;;;;;6.57;3.53;;;;;33.30;96424.00;;;;4974619;28;20237;-73
2023/06/02 10:48:39;;;;;;;4.80;4.05;;;;;34.50;96419.00;;;;4971640;28;20200;-73
2023/06/02 10:52:09;;;;;;;5.43;3.67;;;;;34.60;96410.00;;;;4972157;28;20212;-74
2023/06/02 10:55:30;;;;;;;5.55;3.55;;;;;34.50;96465.00;;;;4963153;28;20220;-73
2023/06/02 10:58:21;;;;;;;4.30;3.30;;;;;33.00;96404.00;;;;4969885;28;20692;-73
2023/06/02 11:01:11;;;;;;;3.53;3.20;;;;;33.00;96469.00;;;;4973247;28;20277;-73
2023/06/02 11:04:06;;;;;;;4.95;3.45;;;;;32.00;96470.00;;;;4971051;28;20221;-73
2023/06/02 11:07:21;;;;;;;6.07;3.78;;;;;31.20;96474.00;;;;4969145;28;20248;-73
2023/06/02 11:10:44;;;;;;;6.40;4.05;;;;;31.50;96465.00;;;;4964097;28;20710;-73
2023/06/02 11:13:57;;;;;;;6.88;4.05;;;;;30.20;96468.00;;;;4969712;28;20199;-73
2023/06/02 11:16:46;;;;;;;7.43;4.10;;;;;29.20;96477.00;;;;4962623;28;20219;-72
2023/06/02 11:19:48;;;;;;;19.93;4.60;;;;;29.50;96471.00;;;;4963403;28;20211;-72
2023/06/02 11:22:38;;;;;;;7.13;4.40;;;;;30.40;96407.00;;;;4965877;28;20211;-72
2023/06/02 11:25:27;;;;;;;8.27;5.17;;;;;31.80;96407.00;;;;4972134;28;20226;-73
2023/06/02 11:28:20;;;;;;;4.53;4.07;;;;;32.90;96400.00;;;;4970328;28;20680;-72
2023/06/02 11:31:11;;;;;;;5.43;3.90;;;;;33.80;96403.00;;;;4972516;28;20206;-74
2023/06/02 11:34:00;;;;;;;6.93;4.03;;;;;33.20;96394.00;;;;4971291;28;20228;-73
2023/06/02 11:36:49;;;;;;;8.10;4.38;;;;;30.40;96459.00;;;;4967709;28;20225;-72
2023/06/02 11:39:50;;;;;;;4.28;3.88;;;;;30.70;96456.00;;;;4966632;28;20211;-72
2023/06/02 11:42:41;;;;;;;5.43;4.47;;;;;30.70;96453.00;;;;4967480;28;20690;-74
2023/06/02 11:45:33;;;;;;;4.47;3.47;;;;;31.70;96387.00;;;;4964830;28;20221;-73
2023/06/02 11:48:25;;;;;;;6.07;4.63;;;;;33.20;96389.00;;;;4964379;28;21124;-73
2023/06/02 11:51:16;;;;;;;4.63;3.60;;;;;33.10;96459.00;;;;4961415;28;20210;-73
2023/06/02 11:54:07;;;;;;;6.20;4.30;;;;;31.70;96451.00;;;;4967798;28;20221;-73
2023/06/02 11:56:56;;;;;;;4.93;3.67;;;;;33.20;96388.00;;;;4963265;28;20227;-74
2023/06/02 11:59:47;;;;;;;4.32;3.70;;;;;33.80;96394.00;;;;4966551;28;20690;-73
2023/06/02 12:02:38;;;;;;;5.45;4.20;;;;;34.10;96380.00;;;;4966753;28;20204;-74
2023/06/02 12:05:32;;;;;;;4.30;3.67;;;;;35.20;96385.00;;;;4959631;28;20203;-74
2023/06/02 12:08:22;;;;;;;4.28;3.88;;;;;35.80;96392.00;;;;4960912;28;20265;-74
2023/06/02 12:11:18;;;;;;;6.78;4.28;;;;;35.80;96396.00;;;;4963067;28;20261;-74
2023/06/02 12:14:09;;;;;;;6.40;3.80;;;;;33.70;96465.00;;;;4967066;28;20214;-73
2023/06/02 12:17:04;;;;;;;5.38;4.57;;;;;30.00;96460.00;;;;4971561;28;20587;-69
2023/06/02 12:20:01;;;;;;;4.75;4.30;;;;;31.40;96437.00;;;;4969142;28;20213;-72
2023/06/02 12:22:53;;;;;;;5.57;4.35;;;;;30.30;96476.00;;;;4967382;28;20338;-72
2023/06/02 12:25:43;;;;;;;6.45;4.65;;;;;30.60;96472.00;;;;4968160;28;20214;-73
2023/06/02 12:28:32;;;;;;;7.15;4.30;;;;;30.80;96430.00;;;;4964194;28;20708;-71
2023/06/02 12:31:22;;;;;;;5.97;4.95;;;;;31.70;96456.00;;;;4966843;28;20207;-73
2023/06/02 12:34:11;;;;;;;5.85;4.63;;;;;29.40;96468.00;;;;4966055;28;20201;-69
2023/06/02 12:37:02;;;;;;;5.97;4.35;;;;;30.60;96434.00;;;;4967042;28;20243;-72
2023/06/02 12:39:51;;;;;;;7.07;4.18;;;;;32.50;96478.00;;;;4965129;28;20205;-71
2023/06/02 12:42:40;;;;;;;4.38;3.97;;;;;31.00;96472.00;;;;4982453;28;20211;-72
2023/06/02 12:45:30;;;;;;;6.93;3.97;;;;;30.50;96486.00;;;;4983189;28;20212;-71
2023/06/02 12:48:20;;;;;;;6.90;4.23;;;;;29.40;96487.00;;;;4979505;28;20201;-72
2023/06/02 12:51:09;;;;;;;6.30;4.07;;;;;31.60;96472.00;;;;4980365;28;20248;-72
2023/06/02 12:54:00;;;;;;;4.33;3.93;;;;;31.90;96407.00;;;;4982088;28;20269;-73
2023/06/02 12:56:50;;;;;;;5.23;4.10;;;;;32.60;96409.00;;;;4981801;28;20225;-73
2023/06/02 12:59:39;;;;;;;4.78;4.05;;;;;34.00;96410.00;;;;4975095;28;20214;-73
2023/06/02 13:02:28;;;;;;;5.15;3.20;;;;;34.30;96407.00;;;;4980751;28;20212;-72
2023/06/02 13:05:17;;;;;;;5.95;3.75;;;;;35.10;96395.00;;;;4971477;28;20213;-73
2023/06/02 13:08:06;;;;;;;5.60;4.15;;;;;36.10;96407.00;;;;4976965;28;20785;-73
2023/06/02 13:10:57;;;;;;;5.88;3.80;;;;;35.50;96406.00;;;;4979916;28;20215;-73
2023/06/02 13:13:46;;;;;;;4.20;3.72;;;;;35.70;96414.00;;;;4977624;28;20265;-73
2023/06/02 13:16:35;;;;;;;6.40;4.05;;;;;33.80;96408.00;;;;4978357;28;20695;-69
2023/06/02 13:19:24;;;;;;;4.05;3.63;;;;;32.40;96408.00;;;;4978268;28;20203;-71
2023/06/02 13:22:14;;;;;;;10.07;4.00;;;;;34.50;96411.00;;;;4977174;28;20257;-73
2023/06/02 13:25:03;;;;;;;4.75;3.95;;;;;35.10;96407.00;;;;4976785;28;20765;-72
2023/06/02 13:27:54;;;;;;;6.13;4.20;;;;;35.90;96411.00;;;;4986420;23;20231;-84
2023/06/02 13:30:43;;;;;;;4.18;3.75;;;;;34.90;96403.00;;;;4975833;28;20331;-85
2023/06/02 13:33:33;;;;;;;4.78;3.67;;;;;35.50;96401.00;;;;4976790;28;20470;-85
2023/06/02 13:36:22;;;;;;;4.55;3.88;;;;;36.60;96403.00;;;;4978716;28;20226;-83
2023/06/02 13:39:12;;;;;;;6.80;3.90;;;;;33.90;96416.00;;;;4976048;28;20218;-85
2023/06/02 13:42:01;;;;;;;4.05;3.75;;;;;33.80;96414.00;;;;4976186;28;20199;-85
2023/06/02 13:44:52;;;;;;;4.32;3.95;;;;;35.10;96420.00;;;;4977153;28;20737;-85
2023/06/02 13:47:41;;;;;;;4.05;3.75;;;;;32.70;96425.00;;;;4975597;28;20200;-87
2023/06/02 13:50:30;;;;;;;3.78;3.47;;;;;35.50;96434.00;;;;4976283;28;20230;-87
2023/06/02 13:53:19;;;;;;;4.38;3.97;;;;;36.80;96424.00;;;;4980251;28;20281;-85
2023/06/02 13:56:08;;;;;;;4.07;3.63;;;;;36.40;96445.00;;;;4976662;28;20199;-87
2023/06/02 13:58:58;;;;;;;5.55;3.47;;;;;33.00;96423.00;;;;4984333;28;20204;-85
2023/06/02 14:01:48;;;;;;;6.05;4.47;;;;;33.00;96427.00;;;;4982269;28;20215;-85
2023/06/02 14:04:37;;;;;;;4.47;3.80;;;;;35.80;96431.00;;;;4982641;28;20226;-85
2023/06/02 14:07:27;;;;;;;5.07;3.45;;;;;35.90;96433.00;;;;4984957;28;20203;-86
2023/06/02 14:10:16;;;;;;;3.97;3.50;;;;;36.10;96429.00;;;;4974762;28;20223;-83
2023/06/02 14:13:05;;;;;;;4.72;3.70;;;;;35.10;96487.00;;;;4977751;28;20215;-84
2023/06/02 14:15:55;;;;;;;4.15;3.75;;;;;35.40;96489.00;;;;4983784;28;20206;-84
2023/06/02 14:18:45;;;;;;;4.47;4.07;;;;;34.40;96490.00;;;;4978971;28;20659;-85
2023/06/02 14:29:51;;;;;;;3.72;3.33;;;;;31.50;96514.00;;;;4945028;28;20219;-83
2023/06/02 14:32:40;;;;;;;3.60;2.83;;;;;31.40;96524.00;;;;4981909;28;20218;-85
2023/06/02 14:35:31;;;;;;;4.20;3.83;;;;;30.80;96534.00;;;;4976348;28;20202;-86
2023/06/02 14:38:20;;;;;;;4.50;3.33;;;;;29.80;96556.00;;;;4988729;28;20228;-87